Time;durP1;ratioP1;P1;durP2;ratioP2;P2;SDS_P1;SDS_P2;PMS_P1;PMS_P2;Temp;Humidity;BMP_temperature;BMP_pressure;BME280_temperature;BME280_humidity;BME280_pressure;Samples;Min_cycle;Max_cycle;Signal;HPM_P1;HPM_P2
2022/07/18 00:02:20;;;;;;;4.78;2.50;;;;;;;17.69;50.62;100364.97;5004387;28;20050;-65
2022/07/18 00:04:46;;;;;;;5.07;2.90;;;;;;;17.60;51.25;100353.16;5004273;28;20401;-65
2022/07/18 00:07:13;;;;;;;11.13;3.67;;;;;;;17.50;51.40;100352.06;5005087;28;20053;-65
2022/07/18 00:09:41;;;;;;;6.93;3.47;;;;;;;17.41;51.89;100360.72;5004356;28;20046;-65
2022/07/18 00:12:10;;;;;;;6.18;3.53;;;;;;;17.36;51.12;100358.34;5012333;28;20128;-65
2022/07/18 00:14:37;;;;;;;4.35;2.60;;;;;;;17.30;52.05;100356.97;5023360;28;20481;-65
2022/07/18 00:17:05;;;;;;;8.45;2.97;;;;;;;17.30;51.97;100362.28;5023290;28;20042;-65
2022/07/18 00:19:33;;;;;;;5.85;3.10;;;;;;;17.29;51.29;100371.22;5025022;28;20049;-65
2022/07/18 00:22:00;;;;;;;5.65;2.72;;;;;;;17.28;51.91;100368.69;5027545;28;20049;-65
2022/07/18 00:24:27;;;;;;;6.43;2.70;;;;;;;17.28;51.98;100371.34;5026879;28;20126;-65
2022/07/18 00:26:54;;;;;;;6.10;2.97;;;;;;;17.26;52.12;100370.59;5027166;28;20057;-64
2022/07/18 00:29:21;;;;;;;8.30;3.20;;;;;;;17.13;51.95;100374.09;5027158;28;20049;-65
2022/07/18 00:31:47;;;;;;;10.68;3.90;;;;;;;17.07;52.80;100373.66;5026367;28;20045;-65
2022/07/18 00:34:14;;;;;;;7.60;3.70;;;;;;;17.04;53.01;100369.38;5026340;28;20057;-65
2022/07/18 00:36:42;;;;;;;6.90;3.10;;;;;;;16.98;53.22;100367.09;5027035;28;20052;-65
2022/07/18 00:39:09;;;;;;;8.40;2.78;;;;;;;16.94;53.12;100365.63;5027620;28;20057;-65
2022/07/18 00:41:35;;;;;;;8.65;3.15;;;;;;;16.92;52.97;100365.72;5010379;28;20046;-65
2022/07/18 00:44:02;;;;;;;12.63;3.90;;;;;;;16.86;53.17;100368.78;5006951;28;20132;-64
2022/07/18 00:46:30;;;;;;;5.97;2.80;;;;;;;16.79;53.39;100371.97;5007582;28;20217;-65
2022/07/18 00:48:56;;;;;;;5.78;2.95;;;;;;;16.79;53.04;100361.31;5008004;28;20049;-63
2022/07/18 00:51:23;;;;;;;5.68;3.10;;;;;;;16.70;54.04;100360.06;5006978;28;20058;-65
2022/07/18 00:53:51;;;;;;;6.15;2.95;;;;;;;16.62;54.04;100355.25;5006807;28;20068;-64
2022/07/18 00:56:20;;;;;;;5.38;3.15;;;;;;;16.58;53.67;100363.53;5006497;28;20054;-64
2022/07/18 00:58:46;;;;;;;6.72;2.78;;;;;;;16.56;53.68;100360.09;5006981;28;20054;-64
2022/07/18 01:03:57;;;;;;;4.78;2.78;;;;;;;16.57;53.54;100348.53;5011775;28;20793;-66
2022/07/18 01:06:24;;;;;;;10.38;3.25;;;;;;;16.55;53.47;100356.59;5006734;28;20069;-64
2022/07/18 01:08:52;;;;;;;7.82;3.80;;;;;;;16.53;53.29;100347.84;5019346;28;20041;-64
2022/07/18 01:11:18;;;;;;;5.32;2.70;;;;;;;16.45;53.94;100350.16;5012548;28;20057;-64
2022/07/18 01:13:45;;;;;;;5.25;2.17;;;;;;;16.37;54.54;100352.47;5026050;28;20052;-64
2022/07/18 01:16:15;;;;;;;5.10;2.85;;;;;;;16.29;54.81;100352.94;5026175;28;20061;-64
2022/07/18 01:18:45;;;;;;;5.25;2.97;;;;;;;16.24;54.38;100350.59;5026731;28;20053;-64
2022/07/18 01:21:13;;;;;;;6.43;3.08;;;;;;;16.22;54.16;100339.19;5026443;28;20058;-65
2022/07/18 01:23:39;;;;;;;6.10;3.10;;;;;;;16.26;54.23;100334.53;5026965;28;20044;-65
2022/07/18 01:26:06;;;;;;;8.60;4.13;;;;;;;16.23;54.72;100329.41;5025828;28;20160;-65
2022/07/18 01:28:33;;;;;;;6.10;2.38;;;;;;;16.18;54.60;100340.34;5026328;28;20050;-65
2022/07/18 01:30:59;;;;;;;4.90;2.92;;;;;;;16.16;54.56;100338.72;5025487;28;20224;-65
2022/07/18 01:33:26;;;;;;;4.10;2.97;;;;;;;16.15;54.62;100335.22;5026315;28;20500;-65
2022/07/18 01:35:53;;;;;;;4.13;2.38;;;;;;;16.13;54.45;100337.13;5025493;28;20056;-65
2022/07/18 01:38:21;;;;;;;5.15;3.08;;;;;;;16.13;54.53;100333.59;5026646;28;20053;-65
2022/07/18 01:40:47;;;;;;;5.63;3.10;;;;;;;16.11;54.67;100325.72;5015726;28;20046;-64
2022/07/18 01:43:14;;;;;;;5.45;3.17;;;;;;;16.06;54.91;100333.97;5006390;28;20061;-64
2022/07/18 01:45:40;;;;;;;8.13;3.08;;;;;;;16.00;54.56;100334.38;5006149;28;20054;-65
2022/07/18 01:48:07;;;;;;;5.50;2.65;;;;;;;15.86;55.14;100337.91;5005860;28;20052;-65
2022/07/18 01:50:33;;;;;;;4.88;2.60;;;;;;;15.80;55.23;100335.63;5006268;28;20057;-65
2022/07/18 01:53:00;;;;;;;5.63;3.10;;;;;;;15.79;55.30;100327.75;5006028;28;20514;-65
2022/07/18 01:55:28;;;;;;;5.78;2.88;;;;;;;15.86;54.94;100329.06;5005375;28;20054;-65
2022/07/18 01:57:55;;;;;;;10.75;3.28;;;;;;;15.83;55.20;100324.81;5005414;28;20506;-65
2022/07/18 02:00:21;;;;;;;6.25;2.65;;;;;;;15.83;55.07;100327.47;5005977;28;20046;-65
2022/07/18 02:02:48;;;;;;;6.20;2.72;;;;;;;15.84;54.86;100333.63;5005947;28;20053;-65
2022/07/18 02:05:14;;;;;;;5.85;3.45;;;;;;;15.73;55.21;100328.13;5018455;28;20084;-65
2022/07/18 02:07:42;;;;;;;6.75;3.53;;;;;;;15.69;55.34;100330.09;5025531;28;20502;-65
2022/07/18 02:10:11;;;;;;;5.70;3.30;;;;;;;15.69;55.39;100319.44;5026050;28;20049;-66
2022/07/18 02:12:40;;;;;;;7.75;2.45;;;;;;;15.73;55.51;100315.69;5025063;28;20072;-65
2022/07/18 02:15:09;;;;;;;3.22;2.05;;;;;;;15.71;55.31;100312.28;5024647;28;20060;-65
2022/07/18 02:17:36;;;;;;;5.45;2.80;;;;;;;15.67;55.43;100308.06;5024905;28;20168;-65
2022/07/18 02:20:03;;;;;;;4.70;2.60;;;;;;;15.61;55.33;100309.28;5025185;28;20556;-65
2022/07/18 02:22:29;;;;;;;4.70;2.53;;;;;;;15.63;55.78;100318.03;5025448;28;20047;-65
2022/07/18 02:24:56;;;;;;;6.32;2.97;;;;;;;15.64;55.63;100310.91;5024203;28;20049;-65
2022/07/18 02:27:22;;;;;;;4.13;2.50;;;;;;;15.63;55.60;100315.38;5024946;28;20057;-65
2022/07/18 02:29:50;;;;;;;4.63;3.08;;;;;;;15.64;55.04;100308.25;5024915;28;20046;-65
2022/07/18 02:32:17;;;;;;;6.53;4.45;;;;;;;15.64;55.15;100308.25;5025018;28;20053;-65
2022/07/18 02:34:44;;;;;;;7.32;2.85;;;;;;;15.63;55.30;100310.06;5024424;28;20136;-65
2022/07/18 02:37:11;;;;;;;6.10;3.28;;;;;;;15.65;54.60;100302.84;5024951;28;20053;-65
2022/07/18 02:39:38;;;;;;;6.55;3.17;;;;;;;15.60;54.93;100309.38;5024748;28;20045;-65
2022/07/18 02:42:05;;;;;;;6.15;3.53;;;;;;;15.57;55.33;100302.44;5022760;28;20428;-65
2022/07/18 02:44:32;;;;;;;4.85;3.30;;;;;;;15.57;55.25;100304.25;5024499;28;20045;-64
2022/07/18 02:47:00;;;;;;;6.85;3.60;;;;;;;15.55;55.58;100303.50;5024869;28;20138;-65
2022/07/18 02:49:31;;;;;;;5.38;3.13;;;;;;;15.53;55.40;100302.72;5024711;28;20053;-64
2022/07/18 02:52:00;;;;;;;6.72;3.03;;;;;;;15.54;55.73;100312.44;5024840;28;20061;-65
2022/07/18 02:54:27;;;;;;;8.52;4.53;;;;;;;15.55;55.50;100312.31;5024064;28;20053;-65
2022/07/18 02:56:54;;;;;;;5.03;2.65;;;;;;;15.54;55.44;100313.28;5017030;28;20490;-64
2022/07/18 02:59:21;;;;;;;4.47;2.60;;;;;;;15.53;55.38;100313.34;5004856;28;20069;-65
2022/07/18 03:01:49;;;;;;;9.60;3.03;;;;;;;15.52;55.52;100309.84;5020274;28;20130;-64
2022/07/18 03:04:17;;;;;;;9.40;2.70;;;;;;;15.47;55.63;100311.94;5023779;28;20050;-65
2022/07/18 03:06:44;;;;;;;4.70;2.92;;;;;;;15.48;55.56;100313.66;5024561;28;20058;-64
2022/07/18 03:09:11;;;;;;;8.25;3.40;;;;;;;15.45;55.87;100311.19;5025570;28;20060;-65
2022/07/18 03:11:37;;;;;;;8.27;3.45;;;;;;;15.44;55.99;100312.13;5025206;28;20049;-64
2022/07/18 03:14:04;;;;;;;5.57;3.08;;;;;;;15.41;55.82;100318.50;5023991;28;20046;-65
2022/07/18 03:16:30;;;;;;;11.65;3.20;;;;;;;15.38;55.97;100312.50;5023997;28;20049;-65
2022/07/18 03:18:57;;;;;;;7.60;3.13;;;;;;;15.36;55.58;100311.75;5024673;28;20052;-65
2022/07/18 03:21:25;;;;;;;6.60;2.95;;;;;;;15.35;56.01;100302.06;5024607;28;20053;-65
2022/07/18 03:23:52;;;;;;;8.02;3.25;;;;;;;15.33;56.10;100312.78;5023549;28;20060;-64
2022/07/18 03:26:18;;;;;;;7.55;2.97;;;;;;;15.28;56.35;100314.00;5023780;28;20056;-64
2022/07/18 03:28:45;;;;;;;7.90;3.17;;;;;;;15.21;57.01;100303.75;5024229;28;20056;-65
2022/07/18 03:31:12;;;;;;;10.50;3.30;;;;;;;15.14;57.27;100304.22;5024890;28;20080;-64
2022/07/18 03:33:38;;;;;;;5.90;2.97;;;;;;;15.09;57.26;100299.19;5024703;28;20441;-64
2022/07/18 03:36:06;;;;;;;7.82;3.42;;;;;;;15.06;57.58;100296.69;5023692;28;20053;-64
2022/07/18 03:38:35;;;;;;;7.00;3.05;;;;;;;15.09;57.04;100295.66;5019653;28;20115;-64
2022/07/18 03:41:02;;;;;;;5.63;3.10;;;;;;;15.13;56.80;100294.53;5009204;28;20141;-64
2022/07/18 03:43:28;;;;;;;9.55;3.10;;;;;;;15.12;56.61;100298.16;5024376;28;20159;-64
2022/07/18 03:45:55;;;;;;;4.53;2.45;;;;;;;15.12;56.39;100295.50;5024265;28;20049;-64
2022/07/18 03:48:21;;;;;;;6.82;3.03;;;;;;;15.11;56.54;100299.06;5024216;28;20064;-64
2022/07/18 03:50:48;;;;;;;5.95;3.35;;;;;;;15.08;56.57;100297.47;5024130;28;20703;-64
2022/07/18 03:53:15;;;;;;;6.25;2.78;;;;;;;15.06;56.86;100304.66;5023918;28;20068;-64
2022/07/18 03:55:43;;;;;;;13.52;2.97;;;;;;;15.07;56.70;100298.41;5026366;28;20049;-64
2022/07/18 03:58:09;;;;;;;4.82;2.75;;;;;;;15.08;56.73;100293.97;5027303;28;20057;-64
2022/07/18 04:00:36;;;;;;;7.93;3.13;;;;;;;15.14;56.83;100297.09;5027826;28;20053;-64
2022/07/18 04:03:02;;;;;;;5.32;3.88;;;;;;;15.14;57.18;100301.56;5028373;28;20049;-64
2022/07/18 04:05:29;;;;;;;5.60;2.58;;;;;;;15.11;57.36;100305.28;5027412;28;20045;-66
2022/07/18 04:07:55;;;;;;;4.97;2.50;;;;;;;15.09;57.79;100299.19;5027716;28;20047;-65
2022/07/18 04:10:22;;;;;;;6.68;3.10;;;;;;;15.06;58.19;100303.81;5027597;28;20049;-65
2022/07/18 04:12:51;;;;;;;6.95;3.47;;;;;;;15.01;58.62;100302.31;5027599;28;20052;-65
2022/07/18 04:15:20;;;;;;;6.93;2.97;;;;;;;14.99;58.59;100301.53;5026862;28;20075;-65
2022/07/18 04:17:47;;;;;;;4.35;2.55;;;;;;;14.99;58.58;100303.34;5027401;28;20053;-65
2022/07/18 04:20:15;;;;;;;5.32;2.95;;;;;;;15.01;58.75;100290.81;5027719;28;20049;-66
2022/07/18 04:22:46;;;;;;;4.25;2.80;;;;;;;15.02;58.66;100289.88;5027722;28;20049;-65
2022/07/18 04:25:13;;;;;;;8.38;3.05;;;;;;;15.03;58.47;100288.91;5027091;28;20049;-65
2022/07/18 04:27:39;;;;;;;6.20;3.05;;;;;;;15.06;58.36;100286.06;5027649;28;20060;-65
2022/07/18 04:30:09;;;;;;;4.50;2.67;;;;;;;15.16;58.09;100284.59;5027120;28;20049;-64
2022/07/18 04:32:35;;;;;;;5.93;3.33;;;;;;;15.22;57.63;100273.59;5026920;28;20053;-64
2022/07/18 04:35:02;;;;;;;3.92;2.60;;;;;;;15.35;57.18;100275.50;5026856;28;20678;-64
2022/07/18 04:37:30;;;;;;;5.57;2.90;;;;;;;15.44;57.08;100273.13;5026938;28;20056;-63
2022/07/18 04:39:57;;;;;;;5.18;3.03;;;;;;;15.48;57.37;100275.59;5027097;28;20045;-65
2022/07/18 04:42:24;;;;;;;7.45;2.72;;;;;;;15.48;57.71;100270.28;5026775;28;20054;-65
2022/07/18 04:44:50;;;;;;;5.40;2.47;;;;;;;15.52;56.81;100267.34;5026284;28;20053;-65
2022/07/18 04:47:18;;;;;;;4.60;2.67;;;;;;;15.60;57.32;100270.38;5026807;28;20049;-65
2022/07/18 04:49:45;;;;;;;6.68;3.55;;;;;;;15.63;57.77;100269.34;5026847;28;20055;-63
2022/07/18 04:52:11;;;;;;;5.93;2.60;;;;;;;15.69;57.46;100266.28;5027668;28;20053;-65
2022/07/18 04:54:38;;;;;;;7.20;3.00;;;;;;;15.80;57.36;100273.59;5025491;28;20045;-65
2022/07/18 04:57:04;;;;;;;5.45;2.70;;;;;;;15.86;57.29;100268.75;5026315;28;20053;-64
2022/07/18 04:59:31;;;;;;;3.38;2.40;;;;;;;15.93;57.19;100261.25;5026334;28;20057;-65
2022/07/18 05:01:58;;;;;;;5.45;3.55;;;;;;;15.99;57.45;100260.84;5023489;28;20049;-65
2022/07/18 05:04:26;;;;;;;8.65;2.80;;;;;;;16.09;57.22;100264.63;5015368;28;20054;-65
2022/07/18 05:06:52;;;;;;;7.43;3.28;;;;;;;16.18;57.11;100263.19;5025711;28;20053;-65
2022/07/18 05:09:19;;;;;;;4.75;2.63;;;;;;;16.25;57.74;100261.84;5026906;28;20053;-65
2022/07/18 05:11:45;;;;;;;4.28;2.55;;;;;;;16.38;57.55;100264.53;5027177;28;20742;-65
2022/07/18 05:14:12;;;;;;;4.78;3.03;;;;;;;16.52;57.05;100264.50;5026220;28;20046;-65
2022/07/18 05:16:39;;;;;;;9.38;3.72;;;;;;;16.59;57.45;100259.63;5026931;28;20045;-65
2022/07/18 05:19:05;;;;;;;7.25;3.50;;;;;;;16.68;57.08;100266.13;5026070;28;20063;-65
2022/07/18 05:21:33;;;;;;;6.97;2.78;;;;;;;16.76;57.46;100263.81;5026641;28;20064;-65
2022/07/18 05:24:00;;;;;;;8.50;2.70;;;;;;;16.88;56.84;100257.69;5026370;28;20669;-65
2022/07/18 05:26:26;;;;;;;11.52;3.65;;;;;;;16.96;57.71;100262.50;5027728;28;20049;-64
2022/07/18 05:28:53;;;;;;;5.43;2.33;;;;;;;17.07;57.29;100257.28;5027784;28;20072;-64
2022/07/18 05:31:19;;;;;;;4.85;2.88;;;;;;;17.16;57.58;100261.13;5030364;28;20065;-64
2022/07/18 05:33:46;;;;;;;8.27;2.90;;;;;;;17.24;57.38;100258.78;5027546;28;20053;-64
2022/07/18 05:36:12;;;;;;;6.88;2.75;;;;;;;17.34;56.97;100262.50;5028168;28;20045;-64
2022/07/18 05:38:40;;;;;;;4.45;2.60;;;;;;;17.46;57.07;100266.13;5028491;28;20790;-64
2022/07/18 05:41:07;;;;;;;6.80;2.78;;;;;;;17.59;57.65;100264.28;5014598;28;20689;-64
2022/07/18 05:43:34;;;;;;;7.63;3.00;;;;;;;17.71;57.71;100262.56;5024614;28;20049;-64
2022/07/18 05:46:01;;;;;;;5.55;2.75;;;;;;;17.81;57.58;100263.66;5025464;28;20452;-65
2022/07/18 05:48:27;;;;;;;4.85;2.92;;;;;;;17.95;57.78;100260.00;5026065;28;20128;-65
2022/07/18 05:50:54;;;;;;;7.18;2.92;;;;;;;18.18;57.21;100266.31;5025439;28;20045;-65
2022/07/18 05:53:20;;;;;;;6.85;3.22;;;;;;;18.33;57.57;100252.81;5026247;28;20136;-65
2022/07/18 05:55:48;;;;;;;4.28;2.83;;;;;;;18.48;57.29;100261.50;5024976;28;20053;-65
2022/07/18 05:58:15;;;;;;;5.53;2.72;;;;;;;18.59;57.20;100257.06;5007206;28;20045;-64
2022/07/18 06:00:42;;;;;;;5.60;2.97;;;;;;;18.74;57.29;100257.72;5006220;28;20042;-65
2022/07/18 06:03:08;;;;;;;5.13;2.25;;;;;;;18.90;56.70;100253.91;5006628;28;20065;-65
2022/07/18 06:05:35;;;;;;;3.35;2.35;;;;;;;19.06;56.64;100259.78;5005755;28;20049;-65
2022/07/18 06:08:02;;;;;;;3.55;2.42;;;;;;;19.23;56.40;100253.13;5006079;28;20049;-65
2022/07/18 06:10:28;;;;;;;10.52;3.15;;;;;;;19.37;56.13;100252.91;5005813;28;20137;-64
2022/07/18 06:12:56;;;;;;;9.48;2.72;;;;;;;19.53;56.32;100249.88;5005946;28;20049;-64
2022/07/18 06:15:23;;;;;;;6.03;3.03;;;;;;;19.66;56.09;100245.22;5005433;28;20133;-64
2022/07/18 06:17:50;;;;;;;6.07;2.97;;;;;;;19.85;55.73;100249.16;5005381;28;20053;-65
2022/07/18 06:20:17;;;;;;;4.38;2.83;;;;;;;20.08;55.77;100252.63;5006523;28;20046;-64
2022/07/18 06:22:44;;;;;;;5.28;3.47;;;;;;;20.38;54.71;100258.16;5006732;28;20065;-64
2022/07/18 06:25:11;;;;;;;7.43;2.60;;;;;;;20.62;53.81;100249.06;5005294;28;20723;-64
2022/07/18 06:27:37;;;;;;;4.78;2.63;;;;;;;20.76;50.64;100240.72;5005487;28;20154;-64
2022/07/18 06:30:08;;;;;;;6.70;3.00;;;;;;;20.92;50.35;100242.09;5005036;28;20729;-64
2022/07/18 06:32:34;;;;;;;4.47;2.20;;;;;;;21.09;47.81;100243.34;5005658;28;20060;-64
2022/07/18 06:35:01;;;;;;;7.05;2.30;;;;;;;21.29;45.19;100241.59;5004728;28;20513;-65
2022/07/18 06:37:28;;;;;;;10.90;7.55;;;;;;;21.46;49.07;100254.44;5005317;28;20061;-64
2022/07/18 06:39:54;;;;;;;10.50;5.85;;;;;;;21.58;48.57;100247.13;5008068;28;20052;-64
2022/07/18 06:42:21;;;;;;;5.55;3.80;;;;;;;21.73;48.58;100248.47;5025348;28;20049;-65
2022/07/18 06:44:47;;;;;;;6.13;3.65;;;;;;;21.89;48.10;100245.28;5024277;28;20747;-64
2022/07/18 06:47:15;;;;;;;7.60;2.85;;;;;;;22.12;48.39;100247.72;5024264;28;20057;-64
2022/07/18 06:49:42;;;;;;;9.05;3.03;;;;;;;22.40;46.99;100248.81;5025329;28;20512;-65
2022/07/18 06:52:11;;;;;;;6.13;3.05;;;;;;;22.59;46.96;100237.19;5025214;28;20103;-65
2022/07/18 06:54:39;;;;;;;3.60;2.22;;;;;;;22.72;46.70;100238.59;5025019;28;20069;-66
2022/07/18 06:57:07;;;;;;;3.53;2.33;;;;;;;22.88;45.03;100246.06;5024340;28;20072;-66
2022/07/18 06:59:34;;;;;;;4.38;2.92;;;;;;;23.02;45.59;100235.91;5024628;28;20045;-65
2022/07/18 07:02:00;;;;;;;11.07;2.58;;;;;;;23.14;43.50;100238.28;5024756;28;20049;-66
2022/07/18 07:04:28;;;;;;;8.13;2.42;;;;;;;23.37;44.00;100240.63;5023816;28;20061;-65
2022/07/18 07:06:56;;;;;;;5.47;2.60;;;;;;;23.63;41.40;100243.50;5024352;28;20056;-64
2022/07/18 07:09:22;;;;;;;3.50;2.05;;;;;;;23.81;40.98;100235.50;5024731;28;20160;-66
2022/07/18 07:11:49;;;;;;;7.28;2.13;;;;;;;23.99;38.11;100241.75;5024606;28;20056;-66
2022/07/18 07:14:15;;;;;;;3.75;1.90;;;;;;;24.17;37.10;100240.97;5023307;28;20069;-66
2022/07/18 07:16:42;;;;;;;6.30;2.20;;;;;;;24.37;35.71;100247.06;5024762;28;20055;-65
2022/07/18 07:19:08;;;;;;;6.28;1.80;;;;;;;24.58;36.73;100244.06;5024361;28;20547;-65
2022/07/18 07:21:36;;;;;;;5.82;1.98;;;;;;;24.79;34.61;100241.91;5024224;28;20058;-65
2022/07/18 07:24:03;;;;;;;3.53;1.60;;;;;;;24.97;33.77;100239.16;5023402;28;20049;-65
2022/07/18 07:26:30;;;;;;;6.20;1.98;;;;;;;25.21;34.04;100245.78;5024272;28;20056;-65
2022/07/18 07:28:56;;;;;;;2.75;1.75;;;;;;;25.48;33.63;100244.75;5024645;28;20071;-65
2022/07/18 07:31:23;;;;;;;5.95;1.80;;;;;;;25.98;32.81;100238.56;5028163;28;20062;-65
2022/07/18 07:33:49;;;;;;;4.65;1.50;;;;;;;26.61;31.02;100242.59;5028598;28;20056;-65
2022/07/18 07:36:16;;;;;;;6.75;2.65;;;;;;;27.06;30.71;100230.41;5027965;28;20053;-65
2022/07/18 07:38:44;;;;;;;3.47;1.60;;;;;;;27.34;30.66;100224.59;5028394;28;20053;-65
2022/07/18 07:41:13;;;;;;;4.45;2.03;;;;;;;27.56;30.26;100221.13;5027796;28;20057;-65
2022/07/18 07:43:40;;;;;;;4.20;1.83;;;;;;;27.79;30.04;100223.09;5028139;28;20049;-65
2022/07/18 07:46:06;;;;;;;6.93;1.80;;;;;;;28.00;29.55;100220.63;5027328;28;20049;-66
2022/07/18 07:48:33;;;;;;;7.20;1.83;;;;;;;28.13;28.60;100208.34;5028085;28;20057;-65
2022/07/18 07:50:59;;;;;;;4.28;2.13;;;;;;;28.27;28.38;100204.88;5028404;28;20525;-65
2022/07/18 07:53:26;;;;;;;7.18;1.58;;;;;;;28.33;28.12;100201.47;5028033;28;20430;-65
2022/07/18 07:55:54;;;;;;;4.70;2.08;;;;;;;28.42;28.36;100207.66;5027221;28;20049;-65
2022/07/18 07:58:20;;;;;;;7.97;1.83;;;;;;;28.49;28.02;100197.78;5027782;28;20061;-65
2022/07/18 08:00:47;;;;;;;3.50;1.75;;;;;;;28.53;26.78;100203.72;5027566;28;20057;-65
2022/07/18 08:03:14;;;;;;;2.88;1.70;;;;;;;28.60;27.33;100191.06;5027825;28;20072;-65
2022/07/18 08:05:45;;;;;;;4.97;1.60;;;;;;;28.68;27.32;100201.88;5027345;28;20533;-66
2022/07/18 08:08:12;;;;;;;3.40;1.77;;;;;;;28.76;26.93;100199.09;5027889;28;20412;-65
2022/07/18 08:10:39;;;;;;;5.07;1.90;;;;;;;28.91;27.03;100196.38;5028060;28;20572;-65
2022/07/18 08:13:07;;;;;;;5.57;2.40;;;;;;;29.01;26.73;100196.97;5027798;28;20060;-65
2022/07/18 08:15:34;;;;;;;7.47;2.00;;;;;;;29.16;26.97;100204.31;5026936;28;20061;-65
2022/07/18 08:18:00;;;;;;;6.50;2.38;;;;;;;29.28;25.50;100202.81;5027519;28;20420;-65
2022/07/18 08:20:27;;;;;;;5.43;1.70;;;;;;;29.41;25.33;100204.88;5027313;28;20056;-65
2022/07/18 08:22:56;;;;;;;2.80;1.63;;;;;;;29.50;24.69;100199.16;5027505;28;20108;-65
2022/07/18 08:25:23;;;;;;;4.55;2.05;;;;;;;29.60;25.59;100200.75;5026780;28;20053;-65
2022/07/18 08:27:49;;;;;;;3.65;2.22;;;;;;;29.67;25.46;100205.25;5027065;28;20069;-65
2022/07/18 08:30:17;;;;;;;3.90;1.98;;;;;;;29.78;24.37;100197.66;5027498;28;20496;-65
2022/07/18 08:32:44;;;;;;;4.32;1.98;;;;;;;29.84;24.78;100194.19;5027500;28;20056;-65
2022/07/18 08:35:10;;;;;;;3.47;1.80;;;;;;;29.88;24.26;100203.63;5026956;28;20088;-65
2022/07/18 08:37:37;;;;;;;2.10;1.52;;;;;;;29.87;24.26;100202.78;5026745;28;20062;-66
2022/07/18 08:40:05;;;;;;;3.65;1.60;;;;;;;29.82;24.85;100199.81;5025665;28;20413;-66
2022/07/18 08:42:34;;;;;;;7.20;2.03;;;;;;;29.84;24.40;100202.34;5026730;28;20429;-66
2022/07/18 08:45:01;;;;;;;2.20;1.48;;;;;;;29.90;23.27;100204.28;5026171;28;20045;-65
2022/07/18 08:47:30;;;;;;;9.95;2.33;;;;;;;30.00;22.87;100207.53;5026675;28;20705;-66
2022/07/18 08:49:57;;;;;;;4.95;1.90;;;;;;;30.05;22.08;100209.66;5023205;28;20060;-63
2022/07/18 08:52:24;;;;;;;8.23;1.77;;;;;;;30.13;22.58;100202.25;5026836;28;20057;-65
2022/07/18 08:54:51;;;;;;;6.28;1.83;;;;;;;30.29;21.96;100201.19;5025808;28;20081;-65
2022/07/18 08:57:18;;;;;;;5.15;2.22;;;;;;;30.59;21.95;100206.47;5026416;28;20776;-66
2022/07/18 08:59:45;;;;;;;6.82;1.58;;;;;;;30.82;22.01;100198.09;5027342;28;20042;-66
2022/07/18 09:02:12;;;;;;;7.10;1.98;;;;;;;31.00;21.84;100201.19;5027126;28;20053;-63
2022/07/18 09:04:42;;;;;;;5.57;1.80;;;;;;;31.19;21.28;100187.91;5026218;28;20042;-64
2022/07/18 09:07:11;;;;;;;2.63;1.58;;;;;;;31.72;21.18;100195.53;5014820;28;20050;-65
2022/07/18 09:09:39;;;;;;;4.25;2.05;;;;;;;32.34;20.40;100186.25;5007014;28;20053;-65
2022/07/18 09:12:08;;;;;;;3.13;1.60;;;;;;;32.78;19.67;100187.56;5007157;28;20064;-65
2022/07/18 09:14:38;;;;;;;5.70;1.75;;;;;;;33.03;19.82;100187.81;5006224;28;20505;-65
2022/07/18 09:17:10;;;;;;;3.33;2.22;;;;;;;33.30;19.12;100179.53;5006721;28;20077;-65
2022/07/18 09:19:38;;;;;;;3.80;1.90;;;;;;;33.68;19.15;100185.09;5006812;28;20077;-65
2022/07/18 09:22:14;;;;;;;3.97;1.70;;;;;;;34.25;18.46;100181.66;5024944;28;20068;-65
2022/07/18 09:24:57;;;;;;;3.47;2.10;;;;;;;34.57;18.01;100182.47;5010440;28;20046;-65
2022/07/18 09:27:36;;;;;;;6.45;2.33;;;;;;;34.73;17.52;100175.59;5006344;28;20049;-65
2022/07/18 09:30:21;;;;;;;4.07;1.90;;;;;;;35.06;17.28;100180.78;5006946;28;20076;-65
2022/07/18 09:32:51;;;;;;;4.70;1.90;;;;;;;35.57;16.68;100181.50;5006269;28;20072;-65
2022/07/18 09:35:20;;;;;;;4.45;2.25;;;;;;;36.05;16.50;100175.16;5005879;28;20056;-65
2022/07/18 09:38:00;;;;;;;4.70;2.30;;;;;;;36.58;16.45;100170.81;5006432;28;20128;-66
2022/07/18 09:40:29;;;;;;;3.78;2.33;;;;;;;36.81;15.84;100175.47;5006682;28;20054;-65
2022/07/18 09:42:58;;;;;;;4.72;2.13;;;;;;;37.08;15.54;100178.59;5006466;28;20042;-65
2022/07/18 09:45:27;;;;;;;7.63;2.70;;;;;;;37.58;15.21;100180.78;5005115;28;20483;-65
2022/07/18 09:47:55;;;;;;;7.63;2.55;;;;;;;37.89;14.54;100181.41;5025316;28;20045;-65
2022/07/18 09:50:28;;;;;;;4.13;2.08;;;;;;;37.96;14.55;100182.09;5005755;28;20061;-65
2022/07/18 09:53:12;;;;;;;2.88;1.90;;;;;;;38.32;14.60;100180.81;5004943;28;20133;-65
2022/07/18 09:55:44;;;;;;;6.55;2.03;;;;;;;38.46;14.46;100178.63;5005646;28;20061;-66
2022/07/18 09:58:11;;;;;;;3.50;1.98;;;;;;;38.28;14.66;100173.34;5010655;28;20085;-66
2022/07/18 10:00:40;;;;;;;7.90;2.50;;;;;;;38.56;14.26;100175.19;5025788;28;20045;-65
2022/07/18 10:03:08;;;;;;;7.20;2.15;;;;;;;38.31;13.96;100176.41;5016209;28;20060;-66
2022/07/18 10:05:37;;;;;;;3.58;2.40;;;;;;;38.43;14.08;100173.59;5005336;28;20052;-66
2022/07/18 10:08:07;;;;;;;6.00;2.15;;;;;;;38.84;13.79;100174.25;5005806;28;20058;-66
2022/07/18 10:10:34;;;;;;;6.43;4.00;;;;;;;39.34;13.76;100178.84;5005599;28;20073;-66
2022/07/18 10:13:03;;;;;;;4.80;2.83;;;;;;;39.54;13.63;100175.53;5005274;28;20053;-65
2022/07/18 10:15:32;;;;;;;7.55;2.40;;;;;;;39.54;13.46;100175.53;5005139;28;20585;-65
2022/07/18 10:17:59;;;;;;;5.13;2.30;;;;;;;39.44;13.14;100181.75;5005253;28;20061;-66
2022/07/18 10:20:29;;;;;;;6.13;2.85;;;;;;;39.42;13.10;100175.66;5005611;28;20049;-65
2022/07/18 10:22:59;;;;;;;4.07;1.92;;;;;;;39.35;13.26;100177.78;5005574;28;20064;-65
2022/07/18 10:25:28;;;;;;;2.70;1.92;;;;;;;39.40;13.20;100175.09;5004823;28;20068;-65
2022/07/18 10:28:02;;;;;;;4.80;2.97;;;;;;;39.56;13.51;100176.13;5005678;28;20547;-66
2022/07/18 10:30:35;;;;;;;3.90;2.30;;;;;;;39.67;13.61;100179.81;5005509;28;20045;-65
2022/07/18 10:33:03;;;;;;;3.40;2.25;;;;;;;39.69;13.24;100175.72;5005264;28;20109;-66
2022/07/18 10:36:03;;;;;;;3.55;2.30;;;;;;;39.55;13.24;100176.38;5004899;28;20058;-65
2022/07/18 10:38:29;;;;;;;9.75;2.13;;;;;;;39.34;13.36;100165.06;5005092;28;20075;-65
2022/07/18 10:41:09;;;;;;;2.28;1.70;;;;;;;39.25;13.33;100169.34;5005285;28;20611;-66
2022/07/18 10:43:41;;;;;;;3.08;2.40;;;;;;;39.32;13.35;100161.72;5005358;28;20049;-66
2022/07/18 10:46:09;;;;;;;4.32;3.03;;;;;;;39.29;13.22;100165.81;5004592;28;20050;-65
2022/07/18 10:49:03;;;;;;;5.47;3.33;;;;;;;39.45;13.09;100160.53;5004827;28;20049;-65
2022/07/18 10:51:35;;;;;;;2.92;1.83;;;;;;;39.18;13.04;100154.91;5023663;28;20141;-65
2022/07/18 10:54:14;;;;;;;3.20;1.83;;;;;;;39.19;12.98;100154.66;5020086;28;20045;-65
2022/07/18 10:57:10;;;;;;;2.95;1.98;;;;;;;39.29;13.12;100162.25;5024431;28;20124;-65
2022/07/18 10:59:39;;;;;;;3.85;1.63;;;;;;;39.00;13.42;100159.63;5016204;28;20056;-64
2022/07/18 11:02:08;;;;;;;2.25;1.60;;;;;;;38.86;13.94;100159.13;5024243;28;20127;-64
2022/07/18 11:04:40;;;;;;;5.35;2.25;;;;;;;38.51;14.00;100151.16;5023559;28;20053;-64
2022/07/18 11:07:11;;;;;;;6.95;2.58;;;;;;;37.96;14.59;100151.81;5024423;28;20056;-64
2022/07/18 11:09:40;;;;;;;5.10;2.92;;;;;;;37.44;15.04;100149.09;5024141;28;20432;-65
2022/07/18 11:12:28;;;;;;;5.70;2.10;;;;;;;36.78;14.94;100143.81;5024210;28;20053;-64
2022/07/18 11:15:18;;;;;;;16.35;7.20;;;;;;;36.19;15.73;100145.66;5023433;28;20044;-65
2022/07/18 11:18:03;;;;;;;5.10;2.10;;;;;;;35.67;15.88;100144.25;5023910;28;20049;-65
2022/07/18 11:20:34;;;;;;;;;;;;;;;35.24;16.54;100141.59;5025097;28;20053;-65
2022/07/18 11:23:03;;;;;;;3.97;1.88;;;;;;;34.81;16.90;100140.56;5024177;28;19925;-65
2022/07/18 11:25:30;;;;;;;3.45;2.22;;;;;;;34.81;17.11;100143.28;5024116;28;20049;-65
2022/07/18 11:27:58;;;;;;;5.50;2.40;;;;;;;34.69;17.49;100136.03;5024299;28;20095;-65
2022/07/18 11:30:25;;;;;;;4.82;2.75;;;;;;;34.72;17.52;100133.69;5024337;28;20049;-65
2022/07/18 11:32:52;;;;;;;4.72;2.00;;;;;;;34.78;17.45;100127.31;5024793;28;20053;-65